createdAt,value
2017-02-22T00:00:43.853Z,1007.43
2017-02-22T00:01:54.152Z,1007.38
2017-02-22T00:03:04.808Z,1007.37
2017-02-22T00:04:15.078Z,1007.39
2017-02-22T00:05:25.828Z,1007.35
2017-02-22T00:06:36.104Z,1007.32
2017-02-22T00:07:46.780Z,1007.33
2017-02-22T00:08:57.440Z,1007.31
2017-02-22T00:10:08.129Z,1007.26
2017-02-22T00:11:18.932Z,1007.21
2017-02-22T00:12:29.700Z,1007.21
2017-02-22T00:13:39.968Z,1007.21
2017-02-22T00:14:50.621Z,1007.17
2017-02-22T00:16:00.921Z,1007.18
2017-02-22T00:17:11.326Z,1007.16
2017-02-22T00:18:21.623Z,1007.19
2017-02-22T00:19:31.525Z,1007.11
2017-02-22T00:20:41.411Z,1007.09
2017-02-22T00:21:52.074Z,1007.11
2017-02-22T00:23:02.286Z,1007.11
2017-02-22T00:24:12.170Z,1007.01
2017-02-22T00:25:22.845Z,1007
2017-02-22T00:26:33.520Z,1007.01
2017-02-22T00:27:44.199Z,1006.97
2017-02-22T00:28:54.584Z,1006.96
2017-02-22T00:30:04.864Z,1007.03
2017-02-22T00:31:15.144Z,1006.92
2017-02-22T00:32:24.629Z,1006.84
2017-02-22T00:33:34.891Z,1006.9
2017-02-22T00:34:45.268Z,1006.81
2017-02-22T00:35:55.916Z,1006.92
2017-02-22T00:37:06.194Z,1006.85
2017-02-22T00:38:16.455Z,1006.89
2017-02-22T00:39:26.361Z,1006.88
2017-02-22T00:40:37.128Z,1006.83
2017-02-22T00:41:47.027Z,1006.79
2017-02-22T00:42:57.293Z,1006.75
2017-02-22T00:44:07.950Z,1006.78
2017-02-22T00:45:18.211Z,1006.76
2017-02-22T00:46:28.966Z,1006.75
2017-02-22T00:47:39.622Z,1006.74
2017-02-22T00:48:50.267Z,1006.75
2017-02-22T00:49:59.762Z,1006.7
2017-02-22T00:51:10.047Z,1006.44
2017-02-22T00:52:20.175Z,1006.4
2017-02-22T00:53:30.828Z,1006.44
2017-02-22T00:54:41.367Z,1006.48
2017-02-22T00:55:50.474Z,1006.44
2017-02-22T00:57:01.155Z,1006.38
2017-02-22T00:58:11.195Z,1006.37
2017-02-22T00:59:21.075Z,1006.39
2017-02-22T01:00:31.739Z,1006.38
2017-02-22T01:01:42.403Z,1006.35
2017-02-22T01:02:52.682Z,1006.33
2017-02-22T01:04:03.521Z,1006.28
2017-02-22T01:05:14.200Z,1006.33
2017-02-22T01:06:24.893Z,1006.26
2017-02-22T01:07:35.164Z,1006.28
2017-02-22T01:08:45.822Z,1006.21
2017-02-22T01:09:56.680Z,1006.22
2017-02-22T01:11:07.356Z,1006.27
2017-02-22T01:12:18.039Z,1006.24
2017-02-22T01:13:28.305Z,1006.26
2017-02-22T01:14:38.961Z,1006.16
2017-02-22T01:15:48.943Z,1006.13
2017-02-22T01:16:58.437Z,1006.13
2017-02-22T01:18:09.120Z,1006.15
2017-02-22T01:19:19.026Z,1006.12
2017-02-22T01:20:29.707Z,1006.19
2017-02-22T01:21:40.100Z,1006.11
2017-02-22T01:22:49.969Z,1006.13
2017-02-22T01:23:59.453Z,1006.16
2017-02-22T01:25:09.349Z,1006.22
2017-02-22T01:26:20.022Z,1006.22
2017-02-22T01:27:30.798Z,1006.2
2017-02-22T01:28:41.481Z,1006.17
2017-02-22T01:29:51.754Z,1006.18
2017-02-22T01:31:01.640Z,1006.17
2017-02-22T01:32:11.529Z,1006.16
2017-02-22T01:33:21.528Z,1006.2
2017-02-22T01:34:32.185Z,1006.25
2017-02-22T01:35:42.444Z,1006.22
2017-02-22T01:36:53.103Z,1006.27
2017-02-22T01:38:03.397Z,1006.24
2017-02-22T01:39:13.776Z,1006.27
2017-02-22T01:40:24.466Z,1006.2
2017-02-22T01:41:34.334Z,1006.25
2017-02-22T01:42:45.006Z,1006.21
2017-02-22T01:43:55.677Z,1006.27
2017-02-22T01:45:06.109Z,1006.15
2017-02-22T01:46:15.993Z,1006.12
2017-02-22T01:47:25.912Z,1006.18
2017-02-22T01:48:36.175Z,1006.13
2017-02-22T01:49:46.848Z,1006.21
2017-02-22T01:50:57.248Z,1006.15
2017-02-22T01:52:07.152Z,1006.1
2017-02-22T01:53:17.408Z,1006.21
2017-02-22T01:54:27.675Z,1006.1
2017-02-22T01:55:38.357Z,1006.14
2017-02-22T01:56:48.391Z,1006.13
2017-02-22T01:57:58.273Z,1006.11
2017-02-22T01:59:08.149Z,1006.15
2017-02-22T02:00:18.016Z,1006.04
2017-02-22T02:01:28.704Z,1006.06
2017-02-22T02:02:39.478Z,1006.08
2017-02-22T02:03:50.136Z,1005.97
2017-02-22T02:05:00.053Z,1006.01
2017-02-22T02:06:10.307Z,1006.05
2017-02-22T02:07:20.564Z,1006.01
2017-02-22T02:08:30.925Z,1005.97
2017-02-22T02:09:41.592Z,1006
2017-02-22T02:10:51.873Z,1006.04
2017-02-22T02:12:01.387Z,1006.02
2017-02-22T02:13:11.664Z,1006.05
2017-02-22T02:14:22.469Z,1006.08
2017-02-22T02:15:32.748Z,1006
2017-02-22T02:16:43.029Z,1006
2017-02-22T02:17:53.319Z,1005.96
2017-02-22T02:19:03.614Z,1006.01
2017-02-22T02:20:13.603Z,1005.94
2017-02-22T02:21:24.287Z,1005.97
2017-02-22T02:22:34.592Z,1005.93
2017-02-22T02:23:44.861Z,1005.94
2017-02-22T02:24:55.154Z,1005.83
2017-02-22T02:26:05.531Z,1005.89
2017-02-22T02:27:15.808Z,1005.78
2017-02-22T02:28:26.076Z,1005.86
2017-02-22T02:29:36.739Z,1005.86
2017-02-22T02:30:47.021Z,1005.78
2017-02-22T02:31:57.009Z,1005.85
2017-02-22T02:33:06.883Z,1005.85
2017-02-22T02:34:16.803Z,1005.85
2017-02-22T02:35:27.069Z,1005.79
2017-02-22T02:36:37.356Z,1005.81
2017-02-22T02:37:47.732Z,1005.74
2017-02-22T02:38:57.617Z,1005.77
2017-02-22T02:40:07.904Z,1005.74
2017-02-22T02:41:18.222Z,1005.8
2017-02-22T02:42:28.524Z,1005.68
2017-02-22T02:43:39.325Z,1005.78
2017-02-22T02:44:50.000Z,1005.69
2017-02-22T02:46:00.283Z,1005.7
2017-02-22T02:47:10.543Z,1005.71
2017-02-22T02:48:20.810Z,1005.57
2017-02-22T02:49:31.184Z,1005.68
2017-02-22T02:50:41.832Z,1005.62
2017-02-22T02:51:51.712Z,1005.59
2017-02-22T02:53:01.995Z,1005.52
2017-02-22T02:54:12.252Z,1005.62
2017-02-22T02:55:23.207Z,1005.6
2017-02-22T02:56:33.478Z,1005.6
2017-02-22T02:57:43.748Z,1005.57
2017-02-22T02:58:54.688Z,1005.62
2017-02-22T03:00:04.946Z,1005.59
2017-02-22T03:01:15.943Z,1005.61
2017-02-22T03:02:26.619Z,1005.58
2017-02-22T03:03:36.904Z,1005.6
2017-02-22T03:04:47.195Z,1005.56
2017-02-22T03:05:57.487Z,1005.56
2017-02-22T03:07:08.042Z,1005.62
2017-02-22T03:08:18.318Z,1005.55
2017-02-22T03:09:28.586Z,1005.53
2017-02-22T03:10:39.265Z,1005.55
2017-02-22T03:11:49.554Z,1005.52
2017-02-22T03:13:00.472Z,1005.55
2017-02-22T03:14:10.669Z,1005.52
2017-02-22T03:15:20.943Z,1005.5
2017-02-22T03:16:31.224Z,1005.48
2017-02-22T03:17:41.894Z,1005.46
2017-02-22T03:18:52.279Z,1005.47
2017-02-22T03:20:02.574Z,1005.43
2017-02-22T03:21:12.855Z,1005.44
2017-02-22T03:22:22.752Z,1005.48
2017-02-22T03:23:33.042Z,1005.43
2017-02-22T03:24:43.429Z,1005.36
2017-02-22T03:25:53.719Z,1005.41
2017-02-22T03:27:02.824Z,1005.32
2017-02-22T03:28:13.089Z,1005.34
2017-02-22T03:29:22.971Z,1005.27
2017-02-22T03:30:33.787Z,1005.2
2017-02-22T03:31:44.483Z,1005.23
2017-02-22T03:32:54.753Z,1005.21
2017-02-22T03:34:05.414Z,1005.19
2017-02-22T03:35:15.309Z,1005.23
2017-02-22T03:36:25.875Z,1005.2
2017-02-22T03:37:35.777Z,1005.22
2017-02-22T03:38:46.061Z,1005.13
2017-02-22T03:39:55.944Z,1005.1
2017-02-22T03:41:06.201Z,1005.13
2017-02-22T03:42:17.153Z,1005.12
2017-02-22T03:43:27.832Z,1005.16
2017-02-22T03:44:38.157Z,1005.15
2017-02-22T03:45:48.837Z,1005.07
2017-02-22T03:46:59.096Z,1005.14
2017-02-22T03:48:09.474Z,1005.09
2017-02-22T03:49:18.989Z,1005.11
2017-02-22T03:50:29.274Z,1005.04
2017-02-22T03:51:39.955Z,1005.04
2017-02-22T03:52:50.643Z,1005.08
2017-02-22T03:54:01.440Z,1005.11
2017-02-22T03:55:11.708Z,1005.01
2017-02-22T03:56:21.970Z,1005.11
2017-02-22T03:57:31.837Z,1005.12
2017-02-22T03:58:41.737Z,1005.15
2017-02-22T03:59:52.509Z,1005.11
2017-02-22T04:01:02.799Z,1005.04
2017-02-22T04:02:13.464Z,1005.05
2017-02-22T04:03:23.362Z,1005.06
2017-02-22T04:04:33.619Z,1005.08
2017-02-22T04:05:43.987Z,1005.06
2017-02-22T04:06:53.879Z,1005.03
2017-02-22T04:08:03.768Z,1005.06
2017-02-22T04:09:14.065Z,1005.01
2017-02-22T04:10:24.348Z,1005.03
2017-02-22T04:11:35.232Z,1004.99
2017-02-22T04:12:45.522Z,1005.08
2017-02-22T04:13:56.189Z,1005.04
2017-02-22T04:15:06.883Z,1005.05
2017-02-22T04:16:17.142Z,1005.01
2017-02-22T04:17:27.679Z,1004.97
2017-02-22T04:18:38.328Z,1004.96
2017-02-22T04:19:48.207Z,1004.96
2017-02-22T04:20:58.475Z,1005
2017-02-22T04:22:08.352Z,1004.98
2017-02-22T04:23:18.723Z,1004.92
2017-02-22T04:24:29.391Z,1004.87
2017-02-22T04:25:40.050Z,1005
2017-02-22T04:26:49.917Z,1005
2017-02-22T04:28:00.595Z,1004.91
2017-02-22T04:29:10.958Z,1004.97
2017-02-22T04:30:21.616Z,1004.92
2017-02-22T04:31:32.295Z,1004.85
2017-02-22T04:32:42.594Z,1004.92
2017-02-22T04:33:52.896Z,1004.98
2017-02-22T04:35:02.895Z,1004.9
2017-02-22T04:36:13.157Z,1004.95
2017-02-22T04:37:23.877Z,1004.96
2017-02-22T04:38:34.554Z,1004.9
2017-02-22T04:39:44.858Z,1004.85
2017-02-22T04:40:54.851Z,1004.87
2017-02-22T04:42:05.142Z,1004.83
2017-02-22T04:43:15.422Z,1004.86
2017-02-22T04:44:25.294Z,1004.88
2017-02-22T04:45:35.957Z,1004.85
2017-02-22T04:46:45.934Z,1004.75
2017-02-22T04:47:55.828Z,1004.81
2017-02-22T04:49:05.336Z,1004.7
2017-02-22T04:50:15.231Z,1004.66
2017-02-22T04:51:25.910Z,1004.57
2017-02-22T04:52:36.264Z,1004.53
2017-02-22T04:53:46.939Z,1004.57
2017-02-22T04:54:56.811Z,1004.52
2017-02-22T04:56:07.485Z,1004.57
2017-02-22T04:57:18.169Z,1004.49
2017-02-22T04:58:28.926Z,1004.55
2017-02-22T04:59:39.587Z,1004.6
2017-02-22T05:00:50.259Z,1004.59
2017-02-22T05:02:00.533Z,1004.58
2017-02-22T05:03:10.819Z,1004.54
2017-02-22T05:04:21.205Z,1004.52
2017-02-22T05:05:31.875Z,1004.52
2017-02-22T05:06:42.557Z,1004.47
2017-02-22T05:07:52.824Z,1004.43
2017-02-22T05:09:03.080Z,1004.44
2017-02-22T05:10:13.096Z,1004.33
2017-02-22T05:11:22.960Z,1004.4
2017-02-22T05:12:33.227Z,1004.45
2017-02-22T05:13:43.509Z,1004.38
2017-02-22T05:14:53.391Z,1004.44
2017-02-22T05:16:03.050Z,1004.39
2017-02-22T05:17:12.538Z,1004.33
2017-02-22T05:18:22.420Z,1004.33
2017-02-22T05:19:33.112Z,1004.35
2017-02-22T05:20:43.398Z,1004.29
2017-02-22T05:21:53.046Z,1004.3
2017-02-22T05:23:03.313Z,1004.29
2017-02-22T05:24:13.597Z,1004.25
2017-02-22T05:25:24.159Z,1004.29
2017-02-22T05:26:34.460Z,1004.26
2017-02-22T05:27:44.829Z,1004.26
2017-02-22T05:28:54.705Z,1004.24
2017-02-22T05:30:05.365Z,1004.29
2017-02-22T05:31:15.641Z,1004.26
2017-02-22T05:32:26.326Z,1004.28
2017-02-22T05:33:36.698Z,1004.19
2017-02-22T05:34:47.389Z,1004.24
2017-02-22T05:35:58.062Z,1004.23
2017-02-22T05:37:08.739Z,1004.21
2017-02-22T05:38:19.412Z,1004.22
2017-02-22T05:39:30.227Z,1004.26
2017-02-22T05:40:40.527Z,1004.24
2017-02-22T05:41:50.791Z,1004.28
2017-02-22T05:43:01.074Z,1004.25
2017-02-22T05:44:11.754Z,1004.15
2017-02-22T05:45:22.566Z,1004.24
2017-02-22T05:46:33.251Z,1004.16
2017-02-22T05:47:43.515Z,1004.2
2017-02-22T05:48:54.070Z,1004.18
2017-02-22T05:50:04.352Z,1004.18
2017-02-22T05:51:14.773Z,1004.23
2017-02-22T05:52:25.055Z,1004.22
2017-02-22T05:53:35.607Z,1004.19
2017-02-22T05:54:45.879Z,1004.11
2017-02-22T05:55:56.161Z,1004.06
2017-02-22T05:57:06.602Z,1004.05
2017-02-22T05:58:17.270Z,1004.04
2017-02-22T05:59:27.952Z,1004.04
2017-02-22T06:00:38.233Z,1003.99
2017-02-22T06:01:48.116Z,1004.05
2017-02-22T06:02:59.071Z,1004.02
2017-02-22T06:04:09.260Z,1004.04
2017-02-22T06:05:19.966Z,1004.02
2017-02-22T06:06:30.641Z,1004.07
2017-02-22T06:07:40.172Z,1004.15
2017-02-22T06:08:50.211Z,1004
2017-02-22T06:10:00.889Z,1004.07
2017-02-22T06:11:10.766Z,1004.03
2017-02-22T06:12:21.027Z,1004.08
2017-02-22T06:13:31.304Z,1004.04
2017-02-22T06:14:42.138Z,1004.11
2017-02-22T06:15:52.411Z,1004.04
2017-02-22T06:17:02.322Z,1004.1
2017-02-22T06:18:12.601Z,1004.03
2017-02-22T06:19:22.872Z,1003.98
2017-02-22T06:20:33.289Z,1004.06
2017-02-22T06:21:43.183Z,1004.02
2017-02-22T06:22:53.462Z,1004.07
2017-02-22T06:24:03.726Z,1004.03
2017-02-22T06:25:14.025Z,1004.13
2017-02-22T06:26:24.798Z,1004.05
2017-02-22T06:27:35.066Z,1004.11
2017-02-22T06:28:45.328Z,1004.02
2017-02-22T06:29:55.642Z,1004.09
2017-02-22T06:31:06.332Z,1004.08
2017-02-22T06:32:16.698Z,1004.06
2017-02-22T06:33:26.966Z,1003.99
2017-02-22T06:34:37.631Z,1004.05
2017-02-22T06:35:47.519Z,1004.02
2017-02-22T06:36:57.027Z,1004.01
2017-02-22T06:38:07.824Z,1004.05
2017-02-22T06:39:18.097Z,1004.06
2017-02-22T06:40:28.447Z,1004.02
2017-02-22T06:41:38.726Z,1004.09
2017-02-22T06:42:49.537Z,1004.08
2017-02-22T06:44:00.351Z,1004.03
2017-02-22T06:45:10.642Z,1004.08
2017-02-22T06:46:20.953Z,1004.1
2017-02-22T06:47:30.465Z,1004.16
2017-02-22T06:48:40.351Z,1004.07
2017-02-22T06:49:51.546Z,1004.09
2017-02-22T06:51:01.536Z,1004.13
2017-02-22T06:52:12.205Z,1004.18
2017-02-22T06:53:22.071Z,1004.21
2017-02-22T06:54:32.377Z,1004.19
2017-02-22T06:55:42.812Z,1004.24
2017-02-22T06:56:52.309Z,1004.29
2017-02-22T06:58:02.888Z,1004.34
2017-02-22T06:59:13.576Z,1004.27
2017-02-22T07:00:24.240Z,1004.31
2017-02-22T07:01:35.151Z,1004.28
2017-02-22T07:02:45.410Z,1004.33
2017-02-22T07:03:55.283Z,1004.32
2017-02-22T07:05:05.565Z,1004.33
2017-02-22T07:06:15.445Z,1004.39
2017-02-22T07:07:26.313Z,1004.34
2017-02-22T07:08:36.205Z,1004.34
2017-02-22T07:09:46.894Z,1004.37
2017-02-22T07:10:57.555Z,1004.31
2017-02-22T07:12:08.230Z,1004.37
2017-02-22T07:13:18.261Z,1004.39
2017-02-22T07:14:28.916Z,1004.37
2017-02-22T07:15:38.425Z,1004.38
2017-02-22T07:16:48.698Z,1004.36
2017-02-22T07:17:58.202Z,1004.35
2017-02-22T07:19:08.627Z,1004.39
2017-02-22T07:20:18.117Z,1004.36
2017-02-22T07:21:28.771Z,1004.45
2017-02-22T07:22:39.436Z,1004.44
2017-02-22T07:23:50.119Z,1004.4
2017-02-22T07:25:00.870Z,1004.42
2017-02-22T07:26:10.778Z,1004.41
2017-02-22T07:27:21.048Z,1004.44
2017-02-22T07:28:31.709Z,1004.47
2017-02-22T07:29:41.231Z,1004.45
2017-02-22T07:30:50.875Z,1004.46
2017-02-22T07:32:01.531Z,1004.48
2017-02-22T07:33:11.810Z,1004.55
2017-02-22T07:34:21.707Z,1004.52
2017-02-22T07:35:32.363Z,1004.52
2017-02-22T07:36:42.417Z,1004.53
2017-02-22T07:37:52.302Z,1004.52
2017-02-22T07:39:02.571Z,1004.52
2017-02-22T07:40:12.835Z,1004.55
2017-02-22T07:41:23.111Z,1004.48
2017-02-22T07:42:33.151Z,1004.54
2017-02-22T07:43:44.102Z,1004.52
2017-02-22T07:44:54.391Z,1004.53
2017-02-22T07:46:04.963Z,1004.6
2017-02-22T07:47:15.271Z,1004.51
2017-02-22T07:48:24.866Z,1004.52
2017-02-22T07:49:35.550Z,1004.47
2017-02-22T07:50:45.425Z,1004.44
2017-02-22T07:51:56.104Z,1004.43
2017-02-22T07:53:06.014Z,1004.43
2017-02-22T07:54:16.473Z,1004.32
2017-02-22T07:55:27.150Z,1004.43
2017-02-22T07:56:37.442Z,1004.42
2017-02-22T07:57:48.098Z,1004.48
2017-02-22T07:58:58.794Z,1004.44
2017-02-22T08:00:09.229Z,1004.5
2017-02-22T08:01:19.879Z,1004.47
2017-02-22T08:02:30.551Z,1004.53
2017-02-22T08:03:40.455Z,1004.53
2017-02-22T08:04:51.135Z,1004.46
2017-02-22T08:06:01.910Z,1004.59
2017-02-22T08:07:12.579Z,1004.54
2017-02-22T08:08:22.858Z,1004.52
2017-02-22T08:09:32.785Z,1004.47
2017-02-22T08:10:43.097Z,1004.48
2017-02-22T08:11:53.490Z,1004.52
2017-02-22T08:13:03.399Z,1004.5
2017-02-22T08:14:13.702Z,1004.49
2017-02-22T08:15:22.821Z,1004.47
2017-02-22T08:16:33.497Z,1004.39
2017-02-22T08:17:43.893Z,1004.47
2017-02-22T08:18:54.194Z,1004.46
2017-02-22T08:20:04.896Z,1004.44
2017-02-22T08:21:14.790Z,1004.51
2017-02-22T08:22:25.089Z,1004.51
2017-02-22T08:23:35.477Z,1004.47
2017-02-22T08:24:44.974Z,1004.44
2017-02-22T08:25:55.247Z,1004.45
2017-02-22T08:27:06.388Z,1004.41
2017-02-22T08:28:16.688Z,1004.5
2017-02-22T08:29:27.099Z,1004.43
2017-02-22T08:30:37.005Z,1004.39
2017-02-22T08:31:47.664Z,1004.39
2017-02-22T08:32:57.980Z,1004.4
2017-02-22T08:34:08.258Z,1004.45
2017-02-22T08:35:18.633Z,1004.44
2017-02-22T08:36:28.923Z,1004.41
2017-02-22T08:37:39.229Z,1004.47
2017-02-22T08:38:49.917Z,1004.34
2017-02-22T08:40:00.222Z,1004.35
2017-02-22T08:41:10.624Z,1004.39
2017-02-22T08:42:20.948Z,1004.39
2017-02-22T08:43:31.241Z,1004.42
2017-02-22T08:44:41.945Z,1004.5
2017-02-22T08:45:52.241Z,1004.5
2017-02-22T08:47:03.042Z,1004.44
2017-02-22T08:48:13.323Z,1004.38
2017-02-22T08:49:24.002Z,1004.38
2017-02-22T08:50:34.663Z,1004.37
2017-02-22T08:51:44.969Z,1004.32
2017-02-22T08:52:55.343Z,1004.41
2017-02-22T08:54:05.635Z,1004.37
2017-02-22T08:55:15.940Z,1004.36
2017-02-22T08:56:25.947Z,1004.43
2017-02-22T08:57:36.247Z,1004.4
2017-02-22T08:58:47.026Z,1004.37
2017-02-22T08:59:57.292Z,1004.44
2017-02-22T09:01:07.576Z,1004.38
2017-02-22T09:02:17.854Z,1004.38
2017-02-22T09:03:28.530Z,1004.42
2017-02-22T09:04:38.961Z,1004.32
2017-02-22T09:05:49.253Z,1004.28
2017-02-22T09:06:59.943Z,1004.33
2017-02-22T09:08:10.224Z,1004.32
2017-02-22T09:09:20.521Z,1004.32
2017-02-22T09:10:30.908Z,1004.35
2017-02-22T09:11:41.219Z,1004.31
2017-02-22T09:12:51.522Z,1004.3
2017-02-22T09:14:01.799Z,1004.28
2017-02-22T09:15:11.691Z,1004.4
2017-02-22T09:16:21.284Z,1004.34
2017-02-22T09:17:31.951Z,1004.29
2017-02-22T09:18:55.369Z,1004.29
2017-02-22T09:20:05.647Z,1004.33
2017-02-22T09:21:15.923Z,1004.3
2017-02-22T09:22:26.281Z,1004.3
2017-02-22T09:23:36.573Z,1004.3
2017-02-22T09:24:46.884Z,1004.39
2017-02-22T09:25:57.558Z,1004.3
2017-02-22T09:27:07.924Z,1004.27
2017-02-22T09:28:18.583Z,1004.32
2017-02-22T09:29:28.866Z,1004.33
2017-02-22T09:30:39.151Z,1004.38
2017-02-22T09:31:49.447Z,1004.27
2017-02-22T09:33:00.382Z,1004.27
2017-02-22T09:34:10.704Z,1004.25
2017-02-22T09:35:20.596Z,1004.29
2017-02-22T09:36:31.249Z,1004.28
2017-02-22T09:37:41.903Z,1004.21
2017-02-22T09:38:52.357Z,1004.31
2017-02-22T09:40:02.251Z,1004.26
2017-02-22T09:41:12.930Z,1004.33
2017-02-22T09:42:22.420Z,1004.38
2017-02-22T09:43:32.682Z,1004.4
2017-02-22T09:44:43.446Z,1004.31
2017-02-22T09:45:54.412Z,1004.32
2017-02-22T09:47:05.082Z,1004.34
2017-02-22T09:48:15.730Z,1004.31
2017-02-22T09:49:25.232Z,1004.31
2017-02-22T09:50:35.653Z,1004.34
2017-02-22T09:51:45.924Z,1004.3
2017-02-22T09:52:56.581Z,1004.29
2017-02-22T09:54:06.858Z,1004.26
2017-02-22T09:55:17.549Z,1004.33
2017-02-22T09:56:28.367Z,1004.31
2017-02-22T09:57:38.644Z,1004.3
2017-02-22T09:58:49.335Z,1004.4
2017-02-22T09:59:59.604Z,1004.3
2017-02-22T10:01:09.874Z,1004.34
2017-02-22T10:02:20.668Z,1004.36
2017-02-22T10:03:31.351Z,1004.39
2017-02-22T10:04:42.008Z,1004.34
2017-02-22T10:05:52.682Z,1004.4
2017-02-22T10:07:02.576Z,1004.45
2017-02-22T10:08:12.981Z,1004.43
2017-02-22T10:09:22.859Z,1004.4
2017-02-22T10:10:33.523Z,1004.41
2017-02-22T10:11:44.171Z,1004.36
2017-02-22T10:12:54.428Z,1004.44
2017-02-22T10:14:04.808Z,1004.41
2017-02-22T10:15:15.458Z,1004.35
2017-02-22T10:16:25.330Z,1004.39
2017-02-22T10:17:35.982Z,1004.26
2017-02-22T10:18:46.256Z,1004.31
2017-02-22T10:19:56.668Z,1004.29
2017-02-22T10:21:06.180Z,1004.25
2017-02-22T10:22:16.845Z,1004.32
2017-02-22T10:23:26.732Z,1004.17
2017-02-22T10:24:37.030Z,1004.26
2017-02-22T10:25:47.077Z,1004.23
2017-02-22T10:26:57.751Z,1004.2
2017-02-22T10:28:08.043Z,1004.18
2017-02-22T10:29:17.958Z,1004.18
2017-02-22T10:30:27.883Z,1004.21
2017-02-22T10:31:37.883Z,1004.19
2017-02-22T10:32:48.152Z,1004.16
2017-02-22T10:33:58.433Z,1004.11
2017-02-22T10:35:08.720Z,1004.14
2017-02-22T10:36:19.404Z,1004.11
2017-02-22T10:37:30.253Z,1004.09
2017-02-22T10:38:40.560Z,1004.13
2017-02-22T10:39:50.033Z,1004.19
2017-02-22T10:41:00.707Z,1004.11
2017-02-22T10:42:11.389Z,1004.13
2017-02-22T10:43:22.364Z,1004.1
2017-02-22T10:44:31.866Z,1004.08
2017-02-22T10:45:42.525Z,1004.08
2017-02-22T10:46:53.182Z,1004.09
2017-02-22T10:48:03.073Z,1004.15
2017-02-22T10:49:13.480Z,1004.02
2017-02-22T10:50:23.361Z,1004.08
2017-02-22T10:51:34.030Z,1004.03
2017-02-22T10:52:44.316Z,1004.06
2017-02-22T10:53:54.599Z,1004.2
2017-02-22T10:55:04.957Z,1004.14
2017-02-22T10:56:15.254Z,1004.25
2017-02-22T10:57:25.138Z,1004.34
2017-02-22T10:58:35.792Z,1004.26
2017-02-22T10:59:45.710Z,1004.33
2017-02-22T11:00:56.080Z,1004.33
2017-02-22T11:02:06.363Z,1004.34
2017-02-22T11:03:16.634Z,1004.3
2017-02-22T11:04:26.927Z,1004.29
2017-02-22T11:05:37.212Z,1004.31
2017-02-22T11:06:47.584Z,1004.31
2017-02-22T11:07:58.287Z,1004.24
2017-02-22T11:09:07.781Z,1004.46
2017-02-22T11:10:18.040Z,1004.36
2017-02-22T11:11:28.764Z,1004.24
2017-02-22T11:12:38.785Z,1004.3
2017-02-22T11:13:49.058Z,1004.22
2017-02-22T11:14:59.348Z,1004.23
2017-02-22T11:16:08.861Z,1004.2
2017-02-22T11:17:18.747Z,1004.1
2017-02-22T11:18:28.756Z,1004.17
2017-02-22T11:19:39.031Z,1004.24
2017-02-22T11:20:49.330Z,1004.12
2017-02-22T11:21:59.611Z,1004.13
2017-02-22T11:23:10.270Z,1004.04
2017-02-22T11:24:19.905Z,1004.02
2017-02-22T11:25:30.604Z,1004.01
2017-02-22T11:26:41.256Z,1004.04
2017-02-22T11:27:50.754Z,1004.05
2017-02-22T11:29:01.425Z,1004.09
2017-02-22T11:30:12.473Z,1003.95
2017-02-22T11:31:22.352Z,1003.94
2017-02-22T11:32:33.004Z,1004.1
2017-02-22T11:33:43.285Z,1003.96
2017-02-22T11:34:53.573Z,1004.04
2017-02-22T11:36:04.014Z,1004
2017-02-22T11:37:14.728Z,1003.98
2017-02-22T11:38:24.520Z,1003.97
2017-02-22T11:39:35.209Z,1003.93
2017-02-22T11:40:45.880Z,1003.92
2017-02-22T11:41:56.262Z,1003.95
2017-02-22T11:43:06.158Z,1003.82
2017-02-22T11:44:16.434Z,1003.8
2017-02-22T11:45:25.929Z,1003.82
2017-02-22T11:46:36.588Z,1003.82
2017-02-22T11:47:47.382Z,1003.71
2017-02-22T11:48:57.704Z,1003.82
2017-02-22T11:50:08.016Z,1003.78
2017-02-22T11:51:18.679Z,1003.89
2017-02-22T11:52:28.965Z,1003.78
2017-02-22T11:53:39.727Z,1003.84
2017-02-22T11:54:50.395Z,1003.85
2017-02-22T11:56:00.650Z,1003.78
2017-02-22T11:57:10.943Z,1003.81
2017-02-22T11:58:21.208Z,1003.86
2017-02-22T11:59:31.222Z,1003.82
2017-02-22T12:00:41.886Z,1003.83
2017-02-22T12:01:52.166Z,1003.84
2017-02-22T12:03:02.071Z,1003.77
2017-02-22T12:04:12.379Z,1003.75
2017-02-22T12:05:21.985Z,1003.69
2017-02-22T12:06:32.304Z,1003.78
2017-02-22T12:07:42.182Z,1003.65
2017-02-22T12:08:52.871Z,1003.63
2017-02-22T12:10:02.348Z,1003.64
2017-02-22T12:11:12.746Z,1003.63
2017-02-22T12:12:23.024Z,1003.68
2017-02-22T12:13:33.323Z,1003.64
2017-02-22T12:14:43.964Z,1003.72
2017-02-22T12:15:54.266Z,1003.66
2017-02-22T12:17:04.261Z,1003.64
2017-02-22T12:18:14.150Z,1003.6
2017-02-22T12:19:24.451Z,1003.58
2017-02-22T12:20:34.726Z,1003.63
2017-02-22T12:21:44.996Z,1003.63
2017-02-22T12:22:56.071Z,1003.45
2017-02-22T12:24:06.735Z,1003.55
2017-02-22T12:25:16.631Z,1003.53
2017-02-22T12:26:26.910Z,1003.52
2017-02-22T12:27:36.407Z,1003.57
2017-02-22T12:28:46.927Z,1003.49
2017-02-22T12:29:57.605Z,1003.53
2017-02-22T12:31:08.277Z,1003.54
2017-02-22T12:32:17.794Z,1003.47
2017-02-22T12:33:28.067Z,1003.46
2017-02-22T12:34:38.053Z,1003.44
2017-02-22T12:35:47.584Z,1003.26
2017-02-22T12:36:58.246Z,1003.36
2017-02-22T12:38:08.528Z,1003.26
2017-02-22T12:39:19.186Z,1003.32
2017-02-22T12:40:29.993Z,1003.32
2017-02-22T12:41:39.926Z,1003.27
2017-02-22T12:42:49.842Z,1003.3
2017-02-22T12:44:00.170Z,1003.3
2017-02-22T12:45:10.045Z,1003.24
2017-02-22T12:46:20.852Z,1003.27
2017-02-22T12:47:31.137Z,1003.24
2017-02-22T12:48:41.429Z,1003.24
2017-02-22T12:49:51.696Z,1003.18
2017-02-22T12:51:01.954Z,1003.19
2017-02-22T12:52:12.323Z,1003.2
2017-02-22T12:53:22.603Z,1003.19
2017-02-22T12:54:32.886Z,1003.15
2017-02-22T12:55:43.635Z,1003.2
2017-02-22T12:56:53.982Z,1003.18
2017-02-22T12:58:04.417Z,1003.16
2017-02-22T12:59:15.109Z,1003.17
2017-02-22T13:00:25.384Z,1003.26
2017-02-22T13:01:35.652Z,1003.18
2017-02-22T13:02:45.556Z,1003.15
2017-02-22T13:03:55.563Z,1003.1
2017-02-22T13:05:05.847Z,1003.19
2017-02-22T13:06:15.720Z,1003.13
2017-02-22T13:07:26.371Z,1003.15
2017-02-22T13:08:36.657Z,1003.15
2017-02-22T13:09:47.051Z,1003.13
2017-02-22T13:10:57.715Z,1003
2017-02-22T13:12:07.995Z,1003.09
2017-02-22T13:13:17.504Z,1003.04
2017-02-22T13:14:28.230Z,1002.99
2017-02-22T13:15:39.003Z,1002.95
2017-02-22T13:16:49.261Z,1002.89
2017-02-22T13:17:59.534Z,1002.83
2017-02-22T13:19:09.816Z,1002.8
2017-02-22T13:20:19.715Z,1002.91
2017-02-22T13:21:30.486Z,1002.85
2017-02-22T13:22:40.757Z,1002.77
2017-02-22T13:23:51.225Z,1002.76
2017-02-22T13:25:01.118Z,1002.75
2017-02-22T13:26:11.390Z,1002.57
2017-02-22T13:27:22.246Z,1002.65
2017-02-22T13:28:31.750Z,1002.57
2017-02-22T13:29:41.624Z,1002.66
2017-02-22T13:30:52.311Z,1002.63
2017-02-22T13:32:02.187Z,1002.64
2017-02-22T13:33:11.960Z,1002.67
2017-02-22T13:34:21.467Z,1002.7
2017-02-22T13:35:31.734Z,1002.68
2017-02-22T13:36:42.387Z,1002.62
2017-02-22T13:37:52.269Z,1002.58
2017-02-22T13:39:02.299Z,1002.6
2017-02-22T13:40:12.579Z,1002.64
2017-02-22T13:41:23.254Z,1002.61
2017-02-22T13:42:33.571Z,1002.68
2017-02-22T13:43:43.745Z,1002.59
2017-02-22T13:44:54.189Z,1002.57
2017-02-22T13:46:04.465Z,1002.64
2017-02-22T13:47:14.349Z,1002.65
2017-02-22T13:48:24.642Z,1002.75
2017-02-22T13:49:34.963Z,1002.63
2017-02-22T13:50:45.343Z,1002.62
2017-02-22T13:51:56.024Z,1002.6
2017-02-22T13:53:06.724Z,1002.59
2017-02-22T13:54:16.637Z,1002.54
2017-02-22T13:55:26.909Z,1002.6
2017-02-22T13:56:37.697Z,1002.6
2017-02-22T13:57:47.582Z,1002.5
2017-02-22T13:58:58.256Z,1002.59
2017-02-22T14:00:08.920Z,1002.57
2017-02-22T14:01:19.184Z,1002.57
2017-02-22T14:02:29.572Z,1002.61
2017-02-22T14:03:39.869Z,1002.54
2017-02-22T14:04:49.354Z,1002.63
2017-02-22T14:06:00.023Z,1002.55
2017-02-22T14:07:10.321Z,1002.56
2017-02-22T14:08:20.295Z,1002.61
2017-02-22T14:09:30.977Z,1002.51
2017-02-22T14:10:40.913Z,1002.56
2017-02-22T14:11:50.807Z,1002.5
2017-02-22T14:13:01.367Z,1002.59
2017-02-22T14:14:11.363Z,1002.44